English বাংলা অনুসন্ধান

 পূর্ব মধ্য বঙ্গোপসাগর ও তৎসংলগ্ন পশ্চিমমধ্য বঙ্গোপসাগর এলাকায় অবস্হানরত নিম্নচাপটি উত্তর - উত্তরপূর্ব দিকে অগ্রসর ও ঘনীভূত হয়ে  গভীর নিম্নচাপে পরিণত হয়েছে। এটি আরো ঘণীভূত হতে পারে। চট্টগ্রাম,কক্সবাজার, মোংলা ও পায়রা সমুদ্র বন্দর সমূহকে এক (পুনঃ)  এক নম্বর দুরবর্তী সতর্ক সংকেত দেখাতে বলা হয়েছে ।

ট্যাফ

TAF VGHS 072300Z 0800/0906 06008KT 4000 HZ SCT012 BKN100 TEMPO 0800/0806 29025G35KT 2000 TSRA BKN008 FEW025CB OVC090 BECMG 0806/0808 20010KT 5000 HZ FEW015 SCT100 TEMPO 0809/0818 29025G35KT 2000 TSRA BKN008 FEW025CB OVC090 BECMG 0818/0820 05008KT 4000 HZ SCT012 BKN100=

 

TAF VGEG 072300Z 0800/0906 07006KT 5000 HZ SCT016 SCT100 TEMPO 0803/0810 31020G30KT 2000 RA/TSRA BKN008 FEW025CB OVC090 BECMG 0810/0812 27006KT 6000 SCT016 BKN100 BECMG 0815/0817 15004KT 6000 FEW018 BKN100=